Wetterdaten: Mai 2017
Datum Temp Feuchte Luftdruck Regen Wind Richtung Sonnenschein UV Solar Windben
01.05.2017 9,3 C 79 % 1012,1 hPa 0,4 l/m 3,0 km/h SO 4,67 h 1,8 UV-I 248 W/m 10,4 km/h
02.05.2017 7,3 C 96 % 1014,8 hPa 11,2 l/m 1,2 km/h N-NO 0,67 h 1,0 UV-I 110 W/m 4,8 km/h
03.05.2017 10,3 C 83 % 1019,5 hPa 0,0 l/m 2,8 km/h N-NO 4,67 h 2,0 UV-I 267 W/m 10,4 km/h
04.05.2017 7,7 C 91 % 1018,0 hPa 0,0 l/m 2,2 km/h N-NO 0,48 h 1,1 UV-I 124 W/m 12,9 km/h
05.05.2017 7,6 C 93 % 1019,3 hPa 0,2 l/m 0,0 km/h N 0,17 h 0,9 UV-I 77 W/m 0,0 km/h
06.05.2017 12,1 C 81 % 1012,1 hPa 0,0 l/m 2,5 km/h O-SO 6,67 h 2,7 UV-I 380 W/m 10,0 km/h
07.05.2017 13,0 C 80 % 1012,9 hPa 0,2 l/m 1,0 km/h N-NW 4,25 h 1,8 UV-I 232 W/m 4,8 km/h
08.05.2017 7,8 C 90 % 1018,1 hPa 0,4 l/m 0,8 km/h NW 0,75 h 1,0 UV-I 123 W/m 7,3 km/h
09.05.2017 7,6 C 66 % 1017,4 hPa 0,0 l/m 1,5 km/h N-NO 6,92 h 2,7 UV-I 370 W/m 4,4 km/h
10.05.2017 8,6 C 71 % 1007,9 hPa 0,0 l/m 0,9 km/h W-NW 11,75 h 3,0 UV-I 456 W/m 3,6 km/h
11.05.2017 15,0 C 68 % 999,8 hPa 0,0 l/m 6,8 km/h S-SO 7,67 h 2,7 UV-I 371 W/m 14,1 km/h
12.05.2017 13,2 C 91 % 1002,8 hPa 3,8 l/m 2,3 km/h S-SO 2,67 h 1,8 UV-I 171 W/m 4,0 km/h
13.05.2017 14,8 C 84 % 1011,0 hPa 0,8 l/m 0,9 km/h S 4,83 h 2,5 UV-I 301 W/m 4,0 km/h
14.05.2017 15,0 C 82 % 1020,6 hPa 0,2 l/m 0,7 km/h S-SW 5,93 h 2,8 UV-I 341 W/m 3,6 km/h
15.05.2017 14,4 C 73 % 1028,1 hPa 0,2 l/m 0,6 km/h NW 11,42 h 3,1 UV-I 469 W/m 2,8 km/h
16.05.2017 18,4 C 70 % 1026,5 hPa 0,0 l/m 1,8 km/h S 3,83 h 2,6 UV-I 272 W/m 4,0 km/h
17.05.2017 21,3 C 61 % 1017,0 hPa 0,0 l/m 5,0 km/h SO 9,42 h 3,7 UV-I 424 W/m 13,7 km/h
18.05.2017 19,1 C 79 % 1009,8 hPa 5,4 l/m 2,9 km/h S-SO 6,00 h 2,6 UV-I 280 W/m 6,4 km/h
19.05.2017 12,2 C 94 % 1011,0 hPa 8,4 l/m 0,3 km/h W-NW 0,08 h 1,5 UV-I 78 W/m 3,2 km/h
20.05.2017 13,4 C 73 % 1021,6 hPa 0,2 l/m 0,5 km/h S-SW 9,58 h 3,0 UV-I 419 W/m 2,8 km/h
21.05.2017 14,4 C 66 % 1025,1 hPa 0,0 l/m 0,2 km/h N-NO 10,08 h 3,0 UV-I 425 W/m 2,0 km/h
22.05.2017 16,6 C 61 % 1018,0 hPa 0,0 l/m 1,5 km/h SO 9,25 h 2,8 UV-I 399 W/m 8,5 km/h
23.05.2017 17,1 C 67 % 1016,9 hPa 0,0 l/m 9,5 km/h N-NW 8,90 h 2,7 UV-I 367 W/m 23,0 km/h
24.05.2017 13,4 C 77 % 1021,6 hPa 0,0 l/m 1,2 km/h NW 6,27 h 2,4 UV-I 291 W/m 5,6 km/h
25.05.2017 16,0 C 76 % 1022,5 hPa 0,0 l/m 3,2 km/h N-NW 5,92 h 3,2 UV-I 352 W/m 5,2 km/h
26.05.2017 18,9 C 68 % 1020,7 hPa 0,0 l/m 0,6 km/h N-NO 11,83 h 3,9 UV-I 476 W/m 4,0 km/h
27.05.2017 21,6 C 64 % 1018,3 hPa 0,0 l/m 5,6 km/h SO 12,92 h 3,9 UV-I 483 W/m 10,1 km/h
28.05.2017 19,5 C 86 % 1016,7 hPa 3,0 l/m 0,0 km/h S 5,92 h 2,0 UV-I 241 W/m 0,0 km/h
29.05.2017 24,2 C 74 % 1010,6 hPa 0,0 l/m 2,0 km/h SO 12,00 h 3,6 UV-I 481 W/m 6,0 km/h
30.05.2017 20,9 C 80 % 1012,3 hPa 1,4 l/m 3,3 km/h N-NW 5,67 h 2,8 UV-I 293 W/m 19,8 km/h
31.05.2017 17,3 C 74 % 1019,8 hPa 0,0 l/m 1,3 km/h N-NW 3,85 h 2,7 UV-I 282 W/m 4,4 km/h
Min-Datum 10.05.17 21.05.17 11.05.17 14 Tage 01.05.17 - - - - 01.05.17
Min-Zeit 05:40 14:15 19:35 - 09:30 - - - - 09:30
Minimum -0,7 C 37 % 997,9 hPa - 0,0 km/h - - - - 0,0 km/h
Max-Datum 29.05.17 07.05.17 15.05.17 02.05.17 27.05.17 - 27.05.17 16.05.17 13.05.17 23.05.17
Max-Zeit 16:45 07:50 11:50 13:45 14:40 - 19:50 13:55 13:55 19:55
Maximum 31,2 C 98 % 1029,0 hPa 11,2 l/m 30,6 km/h
SO
- 12,83 h 7,6 UV-I 1143 W/m 46,7 km/h
S
Durchschnitt 14,4 C 77 % 1016,2 hPa #35,8 l/m 2,1 km/h SO #195:01 h 2,5 UV-I 310 W/m 7,0 km/h

Durchschnitt Minimum Temp.8,9 C
Durchschnitt Maximum Temp.19,8 C